Naples, FL (34116)

11:00 AM EDT on October 01, 2014 (GMT -0400)
Foxfire | Change Station
CLOSE
Current Station
Personal Weather Station
Location: Naples, FL
Elevation: 40 ft
Nearby Weather Stations

Elev 40 ft 26.14 °N, 81.75 °W | Updated 29 seconds ago

Partly Cloudy
Partly Cloudy
84.8 °F
Feels Like 98 °F
N
5.0
Wind Variable Wind from West

Today
High -- | Low -- °F
--% Chance of Precip.
Yesterday
High -- | Low -- °F
Precip. -- in
7:19 AM 7:13 PM
Waxing Crescent, 48% visible
Pressure 29.88 in
Visibility 10.0 miles
Clouds Few 2100 ft
Few 2900 ft
Heat Index 98 °F
Dew Point 80 °F
Humidity 85%
Rainfall 0.05 in
Snow Depth Not available.
UV 7 out of 12
Pollen 3.20 out of 12
Air Quality Not available.
Flu Activity Not available.
METAR KAPF 301453Z 26010KT 10SM FEW021 FEW029 30/24 A2988 RMK AO2 SLP118 T03000239 51009

More Conditions Fewer Conditions

Pressure 29.88 in
Visibility 10.0 miles
Clouds Few 2100 ft
Few 2900 ft
Heat Index 98 °F
Dew Point 80 °F
Humidity 85%
Rainfall 0.05 in
Snow Depth Not available.
UV 7 out of 12
Pollen 3.20 out of 12
Air Quality Not available.
Flu Activity Not available.
METAR KAPF 301453Z 26010KT 10SM FEW021 FEW029 30/24 A2988 RMK AO2 SLP118 T03000239 51009

More Conditions Fewer Conditions

Nowcast | as of 8:09 am EDT on October 1, 2014

Southwesterly flow continues to affect South Florida today. Showers and a few rumbles of thunder are moving from southwest to northeast and will be reaching Naples between 0815 and 0820 am EDT. Showers and thunderstorms are forecast to develop along the East Coast Metro areas this afternoon and evening.

×

10-Day Weather Forecast

Almanac

Astronomy

Oct. 01, 2014 Rise Set
Actual Time 7:19 AM EDT 7:13 PM EDT
Civil Twilight 6:56 AM EDT 7:36 PM EDT
Nautical Twilight 6:29 AM EDT 8:03 PM EDT
Astronomical Twilight 6:02 AM EDT 8:29 PM EDT
Moon 1:55 PM EDT 12:08 AM EDT
Length of Visible Light 12h 40m
Length of Day
11h 54m
Tomorrow will be 1m 31s shorter.
Waxing Crescent, 48% of the Moon is Illuminated
Today
Waxing Crescent
Oct 1
First Quarter
Oct 8
Full
Oct 15
Last Quarter
Oct 23
New

Today's Extremes

State Highs State Lows

Community

WunderPhotos

Upload Photos

1,757,962 photos uploaded!

Nearby

Snow Depth

Station Depth Elevation
No new snow has been reported.

Earthquake Activity

City Distance Mag. Time & Date
No recent earthquake activity has been reported nearby.
Minimum magnitude displayed is 2.5.

Coastal Water Temperatures

Place Temperature
Naples, FL 88.0 °F

Nearby Weather Stations